sensor_id;sensor_type;location;lat;lon;timestamp;temperature;humidity
18041;DHT22;9145;48.588;9.250;2022-10-04T00:01:51;8.40;99.90
18041;DHT22;9145;48.588;9.250;2022-10-04T00:04:22;8.40;99.90
18041;DHT22;9145;48.588;9.250;2022-10-04T00:06:56;8.30;99.90
18041;DHT22;9145;48.588;9.250;2022-10-04T00:09:28;8.30;99.90
18041;DHT22;9145;48.588;9.250;2022-10-04T00:11:59;8.30;99.90
18041;DHT22;9145;48.588;9.250;2022-10-04T00:14:28;8.40;99.90
18041;DHT22;9145;48.588;9.250;2022-10-04T00:16:56;8.40;99.90
18041;DHT22;9145;48.588;9.250;2022-10-04T00:19:36;8.40;99.90
18041;DHT22;9145;48.588;9.250;2022-10-04T00:22:15;8.40;99.90
18041;DHT22;9145;48.588;9.250;2022-10-04T00:28:27;8.20;99.90
18041;DHT22;9145;48.588;9.250;2022-10-04T00:31:18;8.20;99.90
18041;DHT22;9145;48.588;9.250;2022-10-04T00:33:49;8.20;99.90
18041;DHT22;9145;48.588;9.250;2022-10-04T00:36:43;8.10;99.90
18041;DHT22;9145;48.588;9.250;2022-10-04T00:42:08;8.00;99.90
18041;DHT22;9145;48.588;9.250;2022-10-04T00:44:46;8.00;99.90
18041;DHT22;9145;48.588;9.250;2022-10-04T00:47:23;8.00;99.90
18041;DHT22;9145;48.588;9.250;2022-10-04T00:49:55;7.90;99.90
18041;DHT22;9145;48.588;9.250;2022-10-04T00:52:25;7.90;99.90
18041;DHT22;9145;48.588;9.250;2022-10-04T00:54:57;7.90;99.90
18041;DHT22;9145;48.588;9.250;2022-10-04T00:57:28;7.80;99.90
18041;DHT22;9145;48.588;9.250;2022-10-04T01:00:00;7.80;99.90
18041;DHT22;9145;48.588;9.250;2022-10-04T01:02:30;7.80;99.90
18041;DHT22;9145;48.588;9.250;2022-10-04T01:05:01;7.80;99.90
18041;DHT22;9145;48.588;9.250;2022-10-04T01:07:31;7.90;99.90
18041;DHT22;9145;48.588;9.250;2022-10-04T01:10:00;7.80;99.90
18041;DHT22;9145;48.588;9.250;2022-10-04T01:12:44;7.70;99.90
18041;DHT22;9145;48.588;9.250;2022-10-04T01:15:17;7.70;99.90
18041;DHT22;9145;48.588;9.250;2022-10-04T01:18:08;7.70;99.90
18041;DHT22;9145;48.588;9.250;2022-10-04T01:20:37;7.70;99.90
18041;DHT22;9145;48.588;9.250;2022-10-04T01:23:08;7.70;99.90
18041;DHT22;9145;48.588;9.250;2022-10-04T01:25:43;7.70;99.90
18041;DHT22;9145;48.588;9.250;2022-10-04T01:28:11;7.60;99.90
18041;DHT22;9145;48.588;9.250;2022-10-04T01:30:39;7.60;99.90
18041;DHT22;9145;48.588;9.250;2022-10-04T01:33:07;7.50;99.90
18041;DHT22;9145;48.588;9.250;2022-10-04T01:35:34;7.60;99.90
18041;DHT22;9145;48.588;9.250;2022-10-04T01:38:03;7.60;99.90
18041;DHT22;9145;48.588;9.250;2022-10-04T01:40:33;7.40;99.90
18041;DHT22;9145;48.588;9.250;2022-10-04T01:43:05;7.40;99.90
18041;DHT22;9145;48.588;9.250;2022-10-04T01:45:36;7.40;99.90
18041;DHT22;9145;48.588;9.250;2022-10-04T01:48:09;7.40;99.90
18041;DHT22;9145;48.588;9.250;2022-10-04T01:50:39;7.30;99.90
18041;DHT22;9145;48.588;9.250;2022-10-04T01:53:14;7.30;99.90
18041;DHT22;9145;48.588;9.250;2022-10-04T01:55:47;7.30;99.90
18041;DHT22;9145;48.588;9.250;2022-10-04T01:58:18;7.30;99.90
18041;DHT22;9145;48.588;9.250;2022-10-04T02:00:49;7.20;99.90
18041;DHT22;9145;48.588;9.250;2022-10-04T02:03:21;7.30;99.90
18041;DHT22;9145;48.588;9.250;2022-10-04T02:05:56;7.30;99.90
18041;DHT22;9145;48.588;9.250;2022-10-04T02:08:26;7.30;99.90
18041;DHT22;9145;48.588;9.250;2022-10-04T02:10:55;7.30;99.90
18041;DHT22;9145;48.588;9.250;2022-10-04T02:13:24;7.30;99.90
18041;DHT22;9145;48.588;9.250;2022-10-04T02:15:54;7.30;99.90
18041;DHT22;9145;48.588;9.250;2022-10-04T02:18:22;7.30;99.90
18041;DHT22;9145;48.588;9.250;2022-10-04T02:20:52;7.30;99.90
18041;DHT22;9145;48.588;9.250;2022-10-04T02:23:21;7.30;99.90
18041;DHT22;9145;48.588;9.250;2022-10-04T02:25:48;7.20;99.90
18041;DHT22;9145;48.588;9.250;2022-10-04T02:28:18;7.20;99.90
18041;DHT22;9145;48.588;9.250;2022-10-04T02:30:47;7.30;99.90
18041;DHT22;9145;48.588;9.250;2022-10-04T02:33:41;7.20;99.90
18041;DHT22;9145;48.588;9.250;2022-10-04T02:36:08;7.20;99.90
18041;DHT22;9145;48.588;9.250;2022-10-04T02:38:40;7.30;99.90
18041;DHT22;9145;48.588;9.250;2022-10-04T02:41:12;7.30;99.90
18041;DHT22;9145;48.588;9.250;2022-10-04T02:43:50;7.30;99.90
18041;DHT22;9145;48.588;9.250;2022-10-04T02:46:23;7.30;99.90
18041;DHT22;9145;48.588;9.250;2022-10-04T02:48:54;7.30;99.90
18041;DHT22;9145;48.588;9.250;2022-10-04T02:51:25;7.30;99.90
18041;DHT22;9145;48.588;9.250;2022-10-04T02:54:02;7.30;99.90
18041;DHT22;9145;48.588;9.250;2022-10-04T02:56:31;7.30;99.90
18041;DHT22;9145;48.588;9.250;2022-10-04T02:59:02;7.30;99.90
18041;DHT22;9145;48.588;9.250;2022-10-04T03:01:40;7.30;99.90
18041;DHT22;9145;48.588;9.250;2022-10-04T03:04:10;7.30;99.90
18041;DHT22;9145;48.588;9.250;2022-10-04T03:06:38;7.20;99.90
18041;DHT22;9145;48.588;9.250;2022-10-04T03:09:06;7.20;99.90
18041;DHT22;9145;48.588;9.250;2022-10-04T03:11:34;7.20;99.90
18041;DHT22;9145;48.588;9.250;2022-10-04T03:14:05;7.20;99.90
18041;DHT22;9145;48.588;9.250;2022-10-04T03:16:34;7.20;99.90
18041;DHT22;9145;48.588;9.250;2022-10-04T03:19:02;7.20;99.90
18041;DHT22;9145;48.588;9.250;2022-10-04T03:21:30;7.20;99.90
18041;DHT22;9145;48.588;9.250;2022-10-04T03:23:58;7.30;99.90
18041;DHT22;9145;48.588;9.250;2022-10-04T03:26:28;7.30;99.90
18041;DHT22;9145;48.588;9.250;2022-10-04T03:28:56;7.30;99.90
18041;DHT22;9145;48.588;9.250;2022-10-04T03:31:26;7.30;99.90
18041;DHT22;9145;48.588;9.250;2022-10-04T03:33:54;7.30;99.90
18041;DHT22;9145;48.588;9.250;2022-10-04T03:36:24;7.30;99.90
18041;DHT22;9145;48.588;9.250;2022-10-04T03:38:53;7.30;99.90
18041;DHT22;9145;48.588;9.250;2022-10-04T03:41:22;7.30;99.90
18041;DHT22;9145;48.588;9.250;2022-10-04T03:43:50;7.30;99.90
18041;DHT22;9145;48.588;9.250;2022-10-04T03:46:20;7.20;99.90
18041;DHT22;9145;48.588;9.250;2022-10-04T03:48:50;7.20;99.90
18041;DHT22;9145;48.588;9.250;2022-10-04T03:51:20;7.20;99.90
18041;DHT22;9145;48.588;9.250;2022-10-04T03:53:49;7.20;99.90
18041;DHT22;9145;48.588;9.250;2022-10-04T03:56:19;7.20;99.90
18041;DHT22;9145;48.588;9.250;2022-10-04T03:58:48;7.20;99.90
18041;DHT22;9145;48.588;9.250;2022-10-04T04:01:22;7.20;99.90
18041;DHT22;9145;48.588;9.250;2022-10-04T04:04:00;7.10;99.90
18041;DHT22;9145;48.588;9.250;2022-10-04T04:06:36;7.10;99.90
18041;DHT22;9145;48.588;9.250;2022-10-04T04:09:06;7.10;99.90
18041;DHT22;9145;48.588;9.250;2022-10-04T04:11:34;7.00;99.90
18041;DHT22;9145;48.588;9.250;2022-10-04T04:14:04;6.90;99.90
18041;DHT22;9145;48.588;9.250;2022-10-04T04:16:33;6.80;99.90
18041;DHT22;9145;48.588;9.250;2022-10-04T04:19:11;6.80;99.90
18041;DHT22;9145;48.588;9.250;2022-10-04T04:21:39;6.90;99.90
18041;DHT22;9145;48.588;9.250;2022-10-04T04:24:13;6.90;99.90
18041;DHT22;9145;48.588;9.250;2022-10-04T04:26:46;6.90;99.90
18041;DHT22;9145;48.588;9.250;2022-10-04T04:29:20;6.90;99.90
18041;DHT22;9145;48.588;9.250;2022-10-04T04:31:51;6.90;99.90
18041;DHT22;9145;48.588;9.250;2022-10-04T04:34:24;6.90;99.90
18041;DHT22;9145;48.588;9.250;2022-10-04T04:36:56;7.00;99.90
18041;DHT22;9145;48.588;9.250;2022-10-04T04:39:24;7.00;99.90
18041;DHT22;9145;48.588;9.250;2022-10-04T04:42:05;7.10;99.90
18041;DHT22;9145;48.588;9.250;2022-10-04T04:44:37;7.10;99.90
18041;DHT22;9145;48.588;9.250;2022-10-04T04:47:05;7.10;99.90
18041;DHT22;9145;48.588;9.250;2022-10-04T04:49:37;7.10;99.90
18041;DHT22;9145;48.588;9.250;2022-10-04T04:52:13;7.10;99.90
18041;DHT22;9145;48.588;9.250;2022-10-04T04:54:42;7.10;99.90
18041;DHT22;9145;48.588;9.250;2022-10-04T04:57:15;7.00;99.90
18041;DHT22;9145;48.588;9.250;2022-10-04T04:59:44;7.00;99.90
18041;DHT22;9145;48.588;9.250;2022-10-04T05:02:27;7.00;99.90
18041;DHT22;9145;48.588;9.250;2022-10-04T05:07:47;7.00;99.90
18041;DHT22;9145;48.588;9.250;2022-10-04T05:10:20;6.90;99.90
18041;DHT22;9145;48.588;9.250;2022-10-04T05:12:48;6.70;99.90
18041;DHT22;9145;48.588;9.250;2022-10-04T05:15:15;6.70;99.90
18041;DHT22;9145;48.588;9.250;2022-10-04T05:17:43;6.80;99.90
18041;DHT22;9145;48.588;9.250;2022-10-04T05:20:11;6.70;99.90
18041;DHT22;9145;48.588;9.250;2022-10-04T05:22:41;6.70;99.90
18041;DHT22;9145;48.588;9.250;2022-10-04T05:25:15;6.60;99.90
18041;DHT22;9145;48.588;9.250;2022-10-04T05:27:44;6.70;99.90
18041;DHT22;9145;48.588;9.250;2022-10-04T05:30:19;6.70;99.90
18041;DHT22;9145;48.588;9.250;2022-10-04T05:32:56;6.80;99.90
18041;DHT22;9145;48.588;9.250;2022-10-04T05:35:26;6.80;99.90
18041;DHT22;9145;48.588;9.250;2022-10-04T05:38:02;6.80;99.90
18041;DHT22;9145;48.588;9.250;2022-10-04T05:40:39;6.90;99.90
18041;DHT22;9145;48.588;9.250;2022-10-04T05:43:31;7.00;99.90
18041;DHT22;9145;48.588;9.250;2022-10-04T05:46:14;6.90;99.90
18041;DHT22;9145;48.588;9.250;2022-10-04T05:48:43;6.80;99.90
18041;DHT22;9145;48.588;9.250;2022-10-04T05:51:17;6.80;99.90
18041;DHT22;9145;48.588;9.250;2022-10-04T05:53:45;6.90;99.90
18041;DHT22;9145;48.588;9.250;2022-10-04T05:56:27;6.90;99.90
18041;DHT22;9145;48.588;9.250;2022-10-04T05:59:03;6.90;99.90
18041;DHT22;9145;48.588;9.250;2022-10-04T06:01:40;6.90;99.90
18041;DHT22;9145;48.588;9.250;2022-10-04T06:04:33;6.90;99.90
18041;DHT22;9145;48.588;9.250;2022-10-04T06:07:12;7.00;99.90
18041;DHT22;9145;48.588;9.250;2022-10-04T06:09:55;7.10;99.90
18041;DHT22;9145;48.588;9.250;2022-10-04T06:12:32;7.10;99.90
18041;DHT22;9145;48.588;9.250;2022-10-04T06:15:21;7.20;99.90
18041;DHT22;9145;48.588;9.250;2022-10-04T06:18:02;7.20;99.90
18041;DHT22;9145;48.588;9.250;2022-10-04T06:20:50;7.30;99.90
18041;DHT22;9145;48.588;9.250;2022-10-04T06:23:20;7.30;99.90
18041;DHT22;9145;48.588;9.250;2022-10-04T06:25:50;7.40;99.90
18041;DHT22;9145;48.588;9.250;2022-10-04T06:28:23;7.50;99.90
18041;DHT22;9145;48.588;9.250;2022-10-04T06:31:11;7.50;99.90
18041;DHT22;9145;48.588;9.250;2022-10-04T06:33:59;7.60;99.90
18041;DHT22;9145;48.588;9.250;2022-10-04T06:39:56;7.70;99.90
18041;DHT22;9145;48.588;9.250;2022-10-04T06:42:38;7.70;99.90
18041;DHT22;9145;48.588;9.250;2022-10-04T06:45:26;7.70;99.90
18041;DHT22;9145;48.588;9.250;2022-10-04T06:48:10;7.70;99.90
18041;DHT22;9145;48.588;9.250;2022-10-04T06:50:46;7.70;99.90
18041;DHT22;9145;48.588;9.250;2022-10-04T06:53:24;7.80;99.90
18041;DHT22;9145;48.588;9.250;2022-10-04T06:56:14;7.80;99.90
18041;DHT22;9145;48.588;9.250;2022-10-04T06:59:03;7.90;99.90
18041;DHT22;9145;48.588;9.250;2022-10-04T07:01:37;7.80;99.90
18041;DHT22;9145;48.588;9.250;2022-10-04T07:04:23;7.90;99.90
18041;DHT22;9145;48.588;9.250;2022-10-04T07:06:55;8.00;99.90
18041;DHT22;9145;48.588;9.250;2022-10-04T07:09:45;8.00;99.90
18041;DHT22;9145;48.588;9.250;2022-10-04T07:12:13;8.00;99.90
18041;DHT22;9145;48.588;9.250;2022-10-04T07:14:44;8.10;99.90
18041;DHT22;9145;48.588;9.250;2022-10-04T07:17:19;8.00;99.90
18041;DHT22;9145;48.588;9.250;2022-10-04T07:19:50;7.90;99.90
18041;DHT22;9145;48.588;9.250;2022-10-04T07:22:22;7.90;99.90
18041;DHT22;9145;48.588;9.250;2022-10-04T07:25:03;8.10;99.90
18041;DHT22;9145;48.588;9.250;2022-10-04T07:27:33;8.20;99.90
18041;DHT22;9145;48.588;9.250;2022-10-04T07:30:05;8.30;99.90
18041;DHT22;9145;48.588;9.250;2022-10-04T07:32:34;8.30;99.90
18041;DHT22;9145;48.588;9.250;2022-10-04T07:35:11;8.40;99.90
18041;DHT22;9145;48.588;9.250;2022-10-04T07:37:47;8.50;99.90
18041;DHT22;9145;48.588;9.250;2022-10-04T07:40:21;8.40;99.90
18041;DHT22;9145;48.588;9.250;2022-10-04T07:42:52;8.40;99.90
18041;DHT22;9145;48.588;9.250;2022-10-04T07:45:24;8.50;99.90
18041;DHT22;9145;48.588;9.250;2022-10-04T07:48:01;8.50;99.90
18041;DHT22;9145;48.588;9.250;2022-10-04T07:50:32;8.40;99.90
18041;DHT22;9145;48.588;9.250;2022-10-04T07:53:04;8.40;99.90
18041;DHT22;9145;48.588;9.250;2022-10-04T07:55:43;8.40;99.90
18041;DHT22;9145;48.588;9.250;2022-10-04T07:58:23;8.60;99.90
18041;DHT22;9145;48.588;9.250;2022-10-04T08:00:57;8.70;99.90
18041;DHT22;9145;48.588;9.250;2022-10-04T08:03:47;8.70;99.90
18041;DHT22;9145;48.588;9.250;2022-10-04T08:06:22;8.80;99.90
18041;DHT22;9145;48.588;9.250;2022-10-04T08:09:10;8.90;99.90
18041;DHT22;9145;48.588;9.250;2022-10-04T08:11:47;9.00;99.90
18041;DHT22;9145;48.588;9.250;2022-10-04T08:14:24;9.10;99.90
18041;DHT22;9145;48.588;9.250;2022-10-04T08:17:01;9.20;99.90
18041;DHT22;9145;48.588;9.250;2022-10-04T08:19:43;9.30;99.90
18041;DHT22;9145;48.588;9.250;2022-10-04T08:22:21;9.50;99.90
18041;DHT22;9145;48.588;9.250;2022-10-04T08:25:00;9.60;99.90
18041;DHT22;9145;48.588;9.250;2022-10-04T08:27:39;9.70;99.90
18041;DHT22;9145;48.588;9.250;2022-10-04T08:30:41;9.80;99.90
18041;DHT22;9145;48.588;9.250;2022-10-04T08:33:21;9.90;99.90
18041;DHT22;9145;48.588;9.250;2022-10-04T08:36:01;10.00;99.90
18041;DHT22;9145;48.588;9.250;2022-10-04T08:38:41;10.10;99.90
18041;DHT22;9145;48.588;9.250;2022-10-04T08:51:00;10.30;99.90
18041;DHT22;9145;48.588;9.250;2022-10-04T08:54:07;10.50;99.90
18041;DHT22;9145;48.588;9.250;2022-10-04T08:56:56;10.50;99.90
18041;DHT22;9145;48.588;9.250;2022-10-04T09:00:00;10.60;99.90
18041;DHT22;9145;48.588;9.250;2022-10-04T09:02:55;10.60;99.90
18041;DHT22;9145;48.588;9.250;2022-10-04T09:05:49;10.70;99.90
18041;DHT22;9145;48.588;9.250;2022-10-04T09:11:26;10.90;99.90
18041;DHT22;9145;48.588;9.250;2022-10-04T09:14:14;10.90;99.90
18041;DHT22;9145;48.588;9.250;2022-10-04T09:16:46;11.00;99.90
18041;DHT22;9145;48.588;9.250;2022-10-04T09:19:21;11.10;99.90
18041;DHT22;9145;48.588;9.250;2022-10-04T09:22:15;11.20;99.90
18041;DHT22;9145;48.588;9.250;2022-10-04T09:25:21;11.40;99.90
18041;DHT22;9145;48.588;9.250;2022-10-04T09:28:13;11.30;99.90
18041;DHT22;9145;48.588;9.250;2022-10-04T09:30:58;11.40;99.90
18041;DHT22;9145;48.588;9.250;2022-10-04T09:33:41;11.60;99.90
18041;DHT22;9145;48.588;9.250;2022-10-04T09:36:49;11.70;99.90
18041;DHT22;9145;48.588;9.250;2022-10-04T09:39:45;11.80;99.90
18041;DHT22;9145;48.588;9.250;2022-10-04T09:42:50;11.90;99.90
18041;DHT22;9145;48.588;9.250;2022-10-04T09:45:42;12.10;99.90
18041;DHT22;9145;48.588;9.250;2022-10-04T09:48:25;12.30;99.90
18041;DHT22;9145;48.588;9.250;2022-10-04T09:54:16;12.80;99.90
18041;DHT22;9145;48.588;9.250;2022-10-04T09:57:13;12.90;99.90
18041;DHT22;9145;48.588;9.250;2022-10-04T09:59:56;12.90;99.90
18041;DHT22;9145;48.588;9.250;2022-10-04T10:05:52;13.00;99.90
18041;DHT22;9145;48.588;9.250;2022-10-04T10:08:25;13.20;99.90
18041;DHT22;9145;48.588;9.250;2022-10-04T10:11:05;13.30;99.90
18041;DHT22;9145;48.588;9.250;2022-10-04T10:17:08;14.00;99.90
18041;DHT22;9145;48.588;9.250;2022-10-04T10:20:02;14.30;99.90
18041;DHT22;9145;48.588;9.250;2022-10-04T10:22:56;14.60;99.90
18041;DHT22;9145;48.588;9.250;2022-10-04T10:25:43;14.60;99.90
18041;DHT22;9145;48.588;9.250;2022-10-04T10:28:31;14.50;99.90
18041;DHT22;9145;48.588;9.250;2022-10-04T10:31:41;14.50;99.90
18041;DHT22;9145;48.588;9.250;2022-10-04T10:34:35;14.60;99.90
18041;DHT22;9145;48.588;9.250;2022-10-04T10:37:09;14.80;99.90
18041;DHT22;9145;48.588;9.250;2022-10-04T10:40:05;14.80;99.90
18041;DHT22;9145;48.588;9.250;2022-10-04T10:43:02;14.80;99.90
18041;DHT22;9145;48.588;9.250;2022-10-04T10:45:53;14.90;99.90
18041;DHT22;9145;48.588;9.250;2022-10-04T10:48:34;15.00;99.90
18041;DHT22;9145;48.588;9.250;2022-10-04T10:51:15;15.00;99.90
18041;DHT22;9145;48.588;9.250;2022-10-04T10:54:28;15.20;99.90
18041;DHT22;9145;48.588;9.250;2022-10-04T10:57:07;15.50;99.90
18041;DHT22;9145;48.588;9.250;2022-10-04T11:00:15;15.80;99.90
18041;DHT22;9145;48.588;9.250;2022-10-04T11:03:07;16.20;99.90
18041;DHT22;9145;48.588;9.250;2022-10-04T11:06:14;16.30;99.90
18041;DHT22;9145;48.588;9.250;2022-10-04T11:09:14;16.70;99.90
18041;DHT22;9145;48.588;9.250;2022-10-04T11:20:54;16.60;99.90
18041;DHT22;9145;48.588;9.250;2022-10-04T11:23:58;16.70;99.90
18041;DHT22;9145;48.588;9.250;2022-10-04T11:26:53;16.80;99.90
18041;DHT22;9145;48.588;9.250;2022-10-04T11:29:38;17.00;99.90
18041;DHT22;9145;48.588;9.250;2022-10-04T11:35:56;17.40;99.90
18041;DHT22;9145;48.588;9.250;2022-10-04T11:38:47;17.50;99.90
18041;DHT22;9145;48.588;9.250;2022-10-04T11:41:23;17.70;99.90
18041;DHT22;9145;48.588;9.250;2022-10-04T11:44:33;18.00;99.90
18041;DHT22;9145;48.588;9.250;2022-10-04T11:47:17;18.30;99.90
18041;DHT22;9145;48.588;9.250;2022-10-04T11:50:02;18.70;99.90
18041;DHT22;9145;48.588;9.250;2022-10-04T11:53:00;19.00;99.90
18041;DHT22;9145;48.588;9.250;2022-10-04T11:55:56;18.90;99.90
18041;DHT22;9145;48.588;9.250;2022-10-04T11:58:48;18.90;99.90
18041;DHT22;9145;48.588;9.250;2022-10-04T12:01:44;18.80;99.90
18041;DHT22;9145;48.588;9.250;2022-10-04T12:07:41;18.80;99.90
18041;DHT22;9145;48.588;9.250;2022-10-04T12:10:21;18.80;99.90
18041;DHT22;9145;48.588;9.250;2022-10-04T12:13:09;18.80;99.90
18041;DHT22;9145;48.588;9.250;2022-10-04T12:15:50;18.90;99.90
18041;DHT22;9145;48.588;9.250;2022-10-04T12:21:40;19.30;99.90
18041;DHT22;9145;48.588;9.250;2022-10-04T12:27:43;19.90;99.90
18041;DHT22;9145;48.588;9.250;2022-10-04T12:30:26;20.10;99.90
18041;DHT22;9145;48.588;9.250;2022-10-04T12:33:03;20.30;99.90
18041;DHT22;9145;48.588;9.250;2022-10-04T12:35:46;20.20;99.90
18041;DHT22;9145;48.588;9.250;2022-10-04T12:41:14;20.50;99.90
18041;DHT22;9145;48.588;9.250;2022-10-04T12:43:50;20.60;99.90
18041;DHT22;9145;48.588;9.250;2022-10-04T12:46:31;20.70;99.90
18041;DHT22;9145;48.588;9.250;2022-10-04T12:49:10;20.80;99.90
18041;DHT22;9145;48.588;9.250;2022-10-04T12:51:51;20.70;99.90
18041;DHT22;9145;48.588;9.250;2022-10-04T12:54:31;20.50;99.90
18041;DHT22;9145;48.588;9.250;2022-10-04T12:57:12;20.40;99.90
18041;DHT22;9145;48.588;9.250;2022-10-04T12:59:47;20.50;99.90
18041;DHT22;9145;48.588;9.250;2022-10-04T13:02:34;20.50;99.90
18041;DHT22;9145;48.588;9.250;2022-10-04T13:05:13;20.60;99.90
18041;DHT22;9145;48.588;9.250;2022-10-04T13:08:00;20.70;99.90
18041;DHT22;9145;48.588;9.250;2022-10-04T13:10:44;21.00;99.90
18041;DHT22;9145;48.588;9.250;2022-10-04T13:13:47;21.30;99.90
18041;DHT22;9145;48.588;9.250;2022-10-04T13:16:22;21.30;99.90
18041;DHT22;9145;48.588;9.250;2022-10-04T13:19:01;21.40;99.90
18041;DHT22;9145;48.588;9.250;2022-10-04T13:25:00;21.70;99.90
18041;DHT22;9145;48.588;9.250;2022-10-04T13:27:42;21.90;99.90
18041;DHT22;9145;48.588;9.250;2022-10-04T13:30:17;22.10;99.90
18041;DHT22;9145;48.588;9.250;2022-10-04T13:32:52;22.20;99.90
18041;DHT22;9145;48.588;9.250;2022-10-04T13:35:26;22.10;99.90
18041;DHT22;9145;48.588;9.250;2022-10-04T13:38:30;22.50;99.90
18041;DHT22;9145;48.588;9.250;2022-10-04T13:41:13;22.60;99.90
18041;DHT22;9145;48.588;9.250;2022-10-04T13:46:37;22.60;99.90
18041;DHT22;9145;48.588;9.250;2022-10-04T13:49:26;22.60;99.90
18041;DHT22;9145;48.588;9.250;2022-10-04T13:52:13;22.80;99.90
18041;DHT22;9145;48.588;9.250;2022-10-04T13:55:21;23.00;99.90
18041;DHT22;9145;48.588;9.250;2022-10-04T13:58:18;23.20;99.90
18041;DHT22;9145;48.588;9.250;2022-10-04T14:03:57;23.50;99.90
18041;DHT22;9145;48.588;9.250;2022-10-04T14:06:57;23.60;99.90
18041;DHT22;9145;48.588;9.250;2022-10-04T14:09:54;23.60;99.90
18041;DHT22;9145;48.588;9.250;2022-10-04T14:12:54;23.70;99.90
18041;DHT22;9145;48.588;9.250;2022-10-04T14:15:56;23.70;99.90
18041;DHT22;9145;48.588;9.250;2022-10-04T14:21:56;24.30;99.90
18041;DHT22;9145;48.588;9.250;2022-10-04T14:24:55;23.90;99.90
18041;DHT22;9145;48.588;9.250;2022-10-04T14:27:45;24.10;99.90
18041;DHT22;9145;48.588;9.250;2022-10-04T14:30:16;24.20;99.90
18041;DHT22;9145;48.588;9.250;2022-10-04T14:33:08;24.50;99.90
18041;DHT22;9145;48.588;9.250;2022-10-04T14:35:45;24.80;99.90
18041;DHT22;9145;48.588;9.250;2022-10-04T14:38:37;25.00;99.90
18041;DHT22;9145;48.588;9.250;2022-10-04T14:41:42;25.30;99.90
18041;DHT22;9145;48.588;9.250;2022-10-04T14:44:40;25.50;99.90
18041;DHT22;9145;48.588;9.250;2022-10-04T14:47:28;25.70;99.90
18041;DHT22;9145;48.588;9.250;2022-10-04T14:50:07;25.80;99.90
18041;DHT22;9145;48.588;9.250;2022-10-04T14:52:50;26.00;99.90
18041;DHT22;9145;48.588;9.250;2022-10-04T14:55:36;26.00;99.90
18041;DHT22;9145;48.588;9.250;2022-10-04T14:58:14;26.40;99.90
18041;DHT22;9145;48.588;9.250;2022-10-04T15:01:01;26.80;99.90
18041;DHT22;9145;48.588;9.250;2022-10-04T15:03:36;26.70;99.90
18041;DHT22;9145;48.588;9.250;2022-10-04T15:06:21;26.90;99.90
18041;DHT22;9145;48.588;9.250;2022-10-04T15:09:04;26.50;99.90
18041;DHT22;9145;48.588;9.250;2022-10-04T15:11:38;26.40;99.90
18041;DHT22;9145;48.588;9.250;2022-10-04T15:14:24;26.10;99.90
18041;DHT22;9145;48.588;9.250;2022-10-04T15:16:55;26.00;99.90
18041;DHT22;9145;48.588;9.250;2022-10-04T15:19:26;25.80;99.90
18041;DHT22;9145;48.588;9.250;2022-10-04T15:22:04;26.10;99.90
18041;DHT22;9145;48.588;9.250;2022-10-04T15:24:44;25.80;99.90
18041;DHT22;9145;48.588;9.250;2022-10-04T15:27:39;26.50;99.90
18041;DHT22;9145;48.588;9.250;2022-10-04T15:30:22;27.10;99.90
18041;DHT22;9145;48.588;9.250;2022-10-04T15:35:57;27.50;99.90
18041;DHT22;9145;48.588;9.250;2022-10-04T15:38:29;27.60;99.90
18041;DHT22;9145;48.588;9.250;2022-10-04T15:41:01;27.60;99.90
18041;DHT22;9145;48.588;9.250;2022-10-04T15:43:32;27.90;99.90
18041;DHT22;9145;48.588;9.250;2022-10-04T15:46:23;27.90;99.90
18041;DHT22;9145;48.588;9.250;2022-10-04T15:49:12;27.90;99.90
18041;DHT22;9145;48.588;9.250;2022-10-04T15:52:04;27.70;99.90
18041;DHT22;9145;48.588;9.250;2022-10-04T15:55:05;27.80;99.90
18041;DHT22;9145;48.588;9.250;2022-10-04T15:57:49;27.90;99.90
18041;DHT22;9145;48.588;9.250;2022-10-04T16:00:22;28.10;99.90
18041;DHT22;9145;48.588;9.250;2022-10-04T16:03:06;28.10;99.90
18041;DHT22;9145;48.588;9.250;2022-10-04T16:05:41;28.10;99.90
18041;DHT22;9145;48.588;9.250;2022-10-04T16:08:28;27.90;99.90
18041;DHT22;9145;48.588;9.250;2022-10-04T16:11:14;27.80;99.90
18041;DHT22;9145;48.588;9.250;2022-10-04T16:14:12;28.00;99.80
18041;DHT22;9145;48.588;9.250;2022-10-04T16:17:07;27.80;99.90
18041;DHT22;9145;48.588;9.250;2022-10-04T16:19:47;27.70;99.90
18041;DHT22;9145;48.588;9.250;2022-10-04T16:22:25;27.70;99.90
18041;DHT22;9145;48.588;9.250;2022-10-04T16:24:53;27.70;99.90
18041;DHT22;9145;48.588;9.250;2022-10-04T16:28:01;27.10;99.90
18041;DHT22;9145;48.588;9.250;2022-10-04T16:30:33;27.00;99.90
18041;DHT22;9145;48.588;9.250;2022-10-04T16:33:19;26.80;99.90
18041;DHT22;9145;48.588;9.250;2022-10-04T16:36:04;26.70;99.90
18041;DHT22;9145;48.588;9.250;2022-10-04T16:38:36;26.50;99.90
18041;DHT22;9145;48.588;9.250;2022-10-04T16:41:38;26.20;99.90
18041;DHT22;9145;48.588;9.250;2022-10-04T16:44:21;25.60;99.90
18041;DHT22;9145;48.588;9.250;2022-10-04T16:46:56;25.10;99.90
18041;DHT22;9145;48.588;9.250;2022-10-04T16:49:29;24.40;99.90
18041;DHT22;9145;48.588;9.250;2022-10-04T16:52:20;23.60;99.90
18041;DHT22;9145;48.588;9.250;2022-10-04T16:55:08;23.00;99.90
18041;DHT22;9145;48.588;9.250;2022-10-04T17:00:48;21.80;99.90
18041;DHT22;9145;48.588;9.250;2022-10-04T17:03:22;21.40;99.90
18041;DHT22;9145;48.588;9.250;2022-10-04T17:06:02;21.00;99.90
18041;DHT22;9145;48.588;9.250;2022-10-04T17:08:59;20.70;99.90
18041;DHT22;9145;48.588;9.250;2022-10-04T17:11:44;20.50;99.90
18041;DHT22;9145;48.588;9.250;2022-10-04T17:14:42;20.30;99.90
18041;DHT22;9145;48.588;9.250;2022-10-04T17:17:20;20.10;99.90
18041;DHT22;9145;48.588;9.250;2022-10-04T17:19:53;19.90;99.90
18041;DHT22;9145;48.588;9.250;2022-10-04T17:22:29;19.80;99.90
18041;DHT22;9145;48.588;9.250;2022-10-04T17:25:14;19.60;99.90
18041;DHT22;9145;48.588;9.250;2022-10-04T17:27:46;19.50;99.90
18041;DHT22;9145;48.588;9.250;2022-10-04T17:30:18;19.30;99.90
18041;DHT22;9145;48.588;9.250;2022-10-04T17:33:17;19.10;99.90
18041;DHT22;9145;48.588;9.250;2022-10-04T17:38:58;18.60;99.90
18041;DHT22;9145;48.588;9.250;2022-10-04T17:41:36;18.30;99.90
18041;DHT22;9145;48.588;9.250;2022-10-04T17:44:23;18.10;99.90
18041;DHT22;9145;48.588;9.250;2022-10-04T17:46:57;18.00;99.90
18041;DHT22;9145;48.588;9.250;2022-10-04T17:49:34;18.00;99.90
18041;DHT22;9145;48.588;9.250;2022-10-04T17:52:23;17.90;99.90
18041;DHT22;9145;48.588;9.250;2022-10-04T17:55:14;17.80;99.90
18041;DHT22;9145;48.588;9.250;2022-10-04T17:57:47;17.70;99.90
18041;DHT22;9145;48.588;9.250;2022-10-04T18:00:16;17.70;99.90
18041;DHT22;9145;48.588;9.250;2022-10-04T18:03:02;17.60;99.90
18041;DHT22;9145;48.588;9.250;2022-10-04T18:05:41;17.40;99.90
18041;DHT22;9145;48.588;9.250;2022-10-04T18:08:14;17.40;99.90
18041;DHT22;9145;48.588;9.250;2022-10-04T18:10:47;17.30;99.90
18041;DHT22;9145;48.588;9.250;2022-10-04T18:13:22;17.20;99.90
18041;DHT22;9145;48.588;9.250;2022-10-04T18:15:57;17.20;99.90
18041;DHT22;9145;48.588;9.250;2022-10-04T18:18:27;17.10;99.90
18041;DHT22;9145;48.588;9.250;2022-10-04T18:21:03;17.00;99.90
18041;DHT22;9145;48.588;9.250;2022-10-04T18:23:33;17.10;99.90
18041;DHT22;9145;48.588;9.250;2022-10-04T18:26:08;17.10;99.90
18041;DHT22;9145;48.588;9.250;2022-10-04T18:28:37;17.00;99.90
18041;DHT22;9145;48.588;9.250;2022-10-04T18:31:36;16.90;99.90
18041;DHT22;9145;48.588;9.250;2022-10-04T18:34:18;16.70;99.90
18041;DHT22;9145;48.588;9.250;2022-10-04T18:37:02;16.60;99.90